Time;durP1;ratioP1;P1;durP2;ratioP2;P2;SDS_P1;SDS_P2;PMS_P1;PMS_P2;Temp;Humidity;BMP_temperature;BMP_pressure;BME280_temperature;BME280_humidity;BME280_pressure;Samples;Min_cycle;Max_cycle;Signal;HPM_P1;HPM_P2
2021/09/25 00:01:48;;;;;;;5.30;3.92;;;;;;;12.06;100.00;95000.38;10242887;29;20030;-68
2021/09/25 00:06:48;;;;;;;8.25;3.53;;;;;;;12.00;100.00;94996.88;10244325;28;20031;-69
2021/09/25 00:11:49;;;;;;;8.87;4.30;;;;;;;11.76;100.00;95002.84;10244709;28;20031;-74
2021/09/25 00:16:49;;;;;;;8.48;4.05;;;;;;;11.61;100.00;94984.84;10243525;28;20831;-68
2021/09/25 00:21:50;;;;;;;6.75;4.30;;;;;;;11.52;100.00;94996.44;10228169;29;20023;-67
2021/09/25 00:26:50;;;;;;;7.05;4.53;;;;;;;11.51;100.00;94994.81;10241923;29;20023;-66
2021/09/25 00:31:51;;;;;;;6.45;4.18;;;;;;;11.51;100.00;94990.28;10240075;29;20551;-69
2021/09/25 00:36:51;;;;;;;8.55;4.70;;;;;;;11.41;100.00;94996.47;10241511;28;20033;-70
2021/09/25 00:41:52;;;;;;;7.25;4.28;;;;;;;11.42;100.00;94984.63;10243380;29;20090;-70
2021/09/25 00:46:52;;;;;;;5.93;4.20;;;;;;;11.41;100.00;94988.41;10243155;29;20031;-69
2021/09/25 00:51:53;;;;;;;8.07;5.05;;;;;;;11.38;100.00;94996.19;10243333;29;20447;-69
2021/09/25 00:56:54;;;;;;;12.02;4.75;;;;;;;11.25;100.00;95000.25;10243105;28;20063;-70
2021/09/25 01:01:55;;;;;;;5.13;3.97;;;;;;;11.36;100.00;95003.72;10244068;29;20036;-75
2021/09/25 01:06:55;;;;;;;8.80;4.13;;;;;;;11.49;100.00;95003.19;10244698;28;20050;-76
2021/09/25 01:11:56;;;;;;;7.57;4.47;;;;;;;11.31;100.00;95001.84;10243275;29;20035;-70
2021/09/25 01:17:12;;;;;;;5.82;3.97;;;;;;;11.31;100.00;94991.09;10242863;29;20030;-69
2021/09/25 01:22:12;;;;;;;8.48;4.00;;;;;;;11.29;100.00;94994.06;10246918;28;20110;-69
2021/09/25 01:27:13;;;;;;;8.38;4.78;;;;;;;11.26;100.00;94994.59;10251689;28;20065;-69
2021/09/25 01:32:14;;;;;;;8.82;4.40;;;;;;;11.25;100.00;95009.13;10251194;28;20043;-70
2021/09/25 01:37:15;;;;;;;9.13;4.65;;;;;;;11.16;100.00;95010.72;10249949;28;20023;-68
2021/09/25 01:42:15;;;;;;;7.55;4.50;;;;;;;11.02;100.00;95009.66;10250516;28;20489;-68
2021/09/25 01:47:16;;;;;;;9.95;5.15;;;;;;;10.93;100.00;95012.91;10250747;28;20420;-69
2021/09/25 01:52:17;;;;;;;7.30;4.60;;;;;;;10.66;100.00;95021.22;10250301;28;20126;-68
2021/09/25 01:57:18;;;;;;;5.97;3.80;;;;;;;10.71;100.00;95028.47;10248826;28;20071;-69
2021/09/25 02:02:19;;;;;;;9.95;4.38;;;;;;;10.63;100.00;95021.72;10249267;29;20063;-67
2021/09/25 02:07:19;;;;;;;6.95;4.13;;;;;;;10.56;100.00;95023.88;10248775;29;20026;-69
2021/09/25 02:12:20;;;;;;;6.30;4.10;;;;;;;10.46;100.00;95018.47;10248884;28;20020;-67
2021/09/25 02:17:21;;;;;;;7.40;4.60;;;;;;;10.36;100.00;95032.69;10248583;29;20037;-69
2021/09/25 02:22:22;;;;;;;10.05;4.22;;;;;;;10.32;100.00;95039.63;10248286;28;20275;-68
2021/09/25 02:27:22;;;;;;;7.68;4.35;;;;;;;10.35;100.00;95042.63;10264528;28;20023;-74
2021/09/25 02:32:23;;;;;;;9.52;4.25;;;;;;;10.30;100.00;95031.00;10262754;28;20438;-68
2021/09/25 02:37:23;;;;;;;10.50;4.03;;;;;;;10.23;100.00;95039.34;10263665;28;20027;-69
2021/09/25 02:42:24;;;;;;;11.30;5.10;;;;;;;10.07;100.00;95050.03;10249048;28;20274;-71
2021/09/25 02:47:24;;;;;;;9.50;4.70;;;;;;;10.09;100.00;95055.94;10247566;28;20350;-69
2021/09/25 02:52:26;;;;;;;17.90;5.07;;;;;;;10.08;100.00;95062.34;10246840;29;20390;-69
2021/09/25 02:57:26;;;;;;;13.48;5.05;;;;;;;10.01;100.00;95061.78;10263431;28;20051;-69
2021/09/25 03:02:27;;;;;;;7.90;4.55;;;;;;;10.05;100.00;95078.19;10248164;28;20023;-69
2021/09/25 03:07:27;;;;;;;7.57;4.40;;;;;;;10.00;100.00;95080.84;10246512;28;20023;-67
2021/09/25 03:12:28;;;;;;;6.10;4.03;;;;;;;9.95;100.00;95084.31;10247671;28;20294;-69
2021/09/25 03:17:28;;;;;;;7.47;4.05;;;;;;;9.94;100.00;95088.06;10246253;28;20030;-74
2021/09/25 03:22:29;;;;;;;17.73;4.47;;;;;;;10.02;100.00;95092.13;10246110;28;20343;-69
2021/09/25 03:27:29;;;;;;;10.55;4.85;;;;;;;10.00;100.00;95095.06;10246985;28;20831;-68
2021/09/25 03:32:29;;;;;;;11.43;5.55;;;;;;;10.01;100.00;95102.06;10245666;28;20035;-69
2021/09/25 03:37:30;;;;;;;9.52;5.43;;;;;;;9.99;100.00;95106.91;10246870;28;20027;-69
2021/09/25 03:42:30;;;;;;;9.00;5.50;;;;;;;9.88;100.00;95118.66;10244694;28;20082;-68
2021/09/25 03:47:31;;;;;;;7.57;4.60;;;;;;;9.80;100.00;95111.88;10245099;28;20032;-69
2021/09/25 03:52:31;;;;;;;16.67;4.80;;;;;;;9.67;100.00;95118.50;10246023;28;20283;-68
2021/09/25 03:57:32;;;;;;;12.05;5.80;;;;;;;9.70;100.00;95127.94;10228493;29;20286;-68
2021/09/25 04:02:32;;;;;;;11.75;5.28;;;;;;;9.68;100.00;95130.84;10244469;28;20031;-68
2021/09/25 04:07:33;;;;;;;9.50;5.13;;;;;;;9.68;100.00;95140.78;10228584;28;20078;-68
2021/09/25 04:12:33;;;;;;;11.40;5.80;;;;;;;9.70;100.00;95147.50;10243757;29;20497;-68
2021/09/25 04:17:35;;;;;;;17.60;6.68;;;;;;;9.69;100.00;95155.81;10245472;28;20310;-68
2021/09/25 04:22:36;;;;;;;12.80;6.65;;;;;;;9.73;100.00;95152.38;10244005;28;20029;-67
2021/09/25 04:27:36;;;;;;;15.90;5.70;;;;;;;9.69;100.00;95166.56;10259725;28;20027;-68
2021/09/25 04:32:37;;;;;;;11.73;5.72;;;;;;;9.71;100.00;95169.78;10244606;28;20035;-68
2021/09/25 04:37:37;;;;;;;12.00;5.77;;;;;;;9.67;100.00;95187.47;10243561;28;20033;-69
2021/09/25 04:42:37;;;;;;;7.70;5.07;;;;;;;9.60;100.00;95189.56;10243287;29;20609;-68
2021/09/25 04:47:43;;;;;;;11.73;4.77;;;;;;;9.83;100.00;95199.94;10243267;29;20481;-68
2021/09/25 04:52:44;;;;;;;12.13;5.68;;;;;;;9.94;100.00;95194.66;10244757;28;20330;-69
2021/09/25 04:57:44;;;;;;;12.38;5.88;;;;;;;10.02;100.00;95191.47;10263356;28;20138;-68
2021/09/25 05:02:47;;;;;;;12.23;5.53;;;;;;;10.16;100.00;95200.72;10251135;28;20509;-69
2021/09/25 05:07:47;;;;;;;10.73;4.50;;;;;;;10.35;100.00;95206.50;10235071;28;20275;-68
2021/09/25 05:12:48;;;;;;;6.55;4.70;;;;;;;10.53;100.00;95212.53;10250477;29;20035;-70
2021/09/25 05:17:48;;;;;;;11.05;4.72;;;;;;;10.82;100.00;95212.94;10266457;28;20027;-69
2021/09/25 05:22:49;;;;;;;9.15;4.53;;;;;;;11.01;100.00;95213.28;10245630;29;20035;-70
2021/09/25 05:27:49;;;;;;;13.50;5.20;;;;;;;11.29;100.00;95224.66;10249631;29;20089;-69
2021/09/25 05:32:50;;;;;;;12.20;5.53;;;;;;;11.54;100.00;95218.50;10250952;28;20130;-68
2021/09/25 05:37:52;;;;;;;17.88;6.15;;;;;;;11.80;100.00;95222.03;10249298;28;20111;-69
2021/09/25 05:42:52;;;;;;;11.32;4.78;;;;;;;12.22;100.00;95230.94;10249086;29;20024;-69
2021/09/25 05:47:54;;;;;;;8.50;5.17;;;;;;;12.53;100.00;95247.09;10250583;28;20027;-69
2021/09/25 05:52:54;;;;;;;16.27;5.43;;;;;;;12.87;100.00;95240.25;10248964;29;20291;-68
2021/09/25 05:58:01;;;;;;;15.02;4.82;;;;;;;13.44;100.00;95255.16;10248554;29;20485;-68
2021/09/25 06:03:01;;;;;;;9.05;4.85;;;;;;;13.64;100.00;95267.72;10249483;28;20406;-68
2021/09/25 06:08:03;;;;;;;7.82;4.47;;;;;;;14.02;100.00;95276.13;10248349;28;20027;-71
2021/09/25 06:13:06;;;;;;;6.75;3.58;;;;;;;14.27;100.00;95281.63;10248096;28;20382;-71
2021/09/25 06:18:07;;;;;;;9.48;4.55;;;;;;;14.44;96.85;95276.63;10249230;28;20019;-68
2021/09/25 06:23:08;;;;;;;8.88;4.72;;;;;;;14.55;94.46;95265.69;10247469;29;20024;-69
2021/09/25 06:28:08;;;;;;;7.78;4.68;;;;;;;14.76;94.43;95280.66;10247426;28;20023;-69
2021/09/25 06:33:10;;;;;;;13.85;5.85;;;;;;;15.10;90.97;95273.53;10247440;29;20485;-71
2021/09/25 06:38:11;;;;;;;14.10;5.82;;;;;;;15.63;86.23;95273.41;10246246;29;20078;-68
2021/09/25 06:43:11;;;;;;;9.82;5.32;;;;;;;15.91;82.17;95264.66;10245938;28;20077;-72
2021/09/25 06:48:12;;;;;;;11.82;5.93;;;;;;;16.31;81.99;95275.97;10245605;29;20434;-72
2021/09/25 06:53:12;;;;;;;12.02;5.47;;;;;;;17.83;73.04;95269.84;10242878;29;20464;-72
2021/09/25 06:58:13;;;;;;;10.27;6.00;;;;;;;18.08;72.59;95262.25;10260794;28;20063;-70
2021/09/25 07:03:14;;;;;;;9.60;4.60;;;;;;;18.27;73.95;95253.91;10247332;28;20023;-71
2021/09/25 07:08:14;;;;;;;11.55;5.05;;;;;;;19.99;61.59;95255.25;10245767;29;20282;-69
2021/09/25 07:13:15;;;;;;;11.17;6.53;;;;;;;22.80;50.00;95243.75;10245361;28;20019;-70
2021/09/25 07:18:16;;;;;;;15.82;5.53;;;;;;;23.14;48.63;95250.81;10238016;28;20390;-70
2021/09/25 07:23:16;;;;;;;21.17;7.55;;;;;;;24.13;45.92;95255.44;10240516;28;20047;-74
2021/09/25 07:28:17;;;;;;;15.40;6.83;;;;;;;23.93;46.48;95254.44;10240981;29;20038;-68
2021/09/25 07:33:17;;;;;;;9.83;4.90;;;;;;;25.40;43.64;95249.44;10239710;28;20290;-70
2021/09/25 07:38:18;;;;;;;16.40;4.75;;;;;;;27.34;40.24;95238.06;10229398;29;20039;-78
2021/09/25 07:43:19;;;;;;;8.60;4.33;;;;;;;27.28;40.26;95243.88;10239731;29;20061;-73
2021/09/25 07:48:19;;;;;;;13.02;4.93;;;;;;;29.00;37.12;95235.56;10240419;29;20118;-73
2021/09/25 07:53:20;;;;;;;7.77;4.80;;;;;;;31.29;33.62;95230.91;10240320;28;20030;-77
2021/09/25 07:58:20;;;;;;;9.38;3.47;;;;;;;33.05;30.79;95226.91;10240831;28;20790;-74
2021/09/25 08:03:21;;;;;;;8.73;3.07;;;;;;;33.92;29.34;95217.91;10240223;28;20414;-70
2021/09/25 08:08:21;;;;;;;10.97;3.83;;;;;;;34.45;27.98;95227.69;10240201;28;20031;-73
2021/09/25 08:13:21;;;;;;;6.90;3.10;;;;;;;34.76;28.13;95224.91;10240809;28;20031;-72
2021/09/25 08:18:22;;;;;;;6.03;2.90;;;;;;;32.10;31.35;95227.69;10239284;29;20275;-70
2021/09/25 08:23:23;;;;;;;6.00;2.45;;;;;;;31.32;31.24;95230.13;10239492;29;20361;-74
2021/09/25 08:28:23;;;;;;;8.85;2.90;;;;;;;29.55;34.31;95223.00;10240605;28;20496;-73
2021/09/25 08:33:24;;;;;;;4.95;2.60;;;;;;;28.18;37.37;95235.38;10238159;28;20031;-73
2021/09/25 08:38:24;;;;;;;3.97;2.53;;;;;;;25.74;40.31;95217.59;10239317;28;20121;-72
2021/09/25 08:43:26;;;;;;;8.57;3.30;;;;;;;24.79;43.35;95223.13;10242998;28;20036;-73
2021/09/25 08:48:28;;;;;;;6.65;2.53;;;;;;;24.95;44.34;95223.13;10238611;28;20322;-72
2021/09/25 08:53:29;;;;;;;5.53;3.05;;;;;;;25.01;44.50;95222.53;10238287;28;20148;-72
2021/09/25 08:58:29;;;;;;;5.63;2.95;;;;;;;25.17;44.22;95224.47;10238615;28;20472;-71
2021/09/25 09:03:34;;;;;;;5.40;3.27;;;;;;;25.20;43.68;95229.25;10238769;28;20086;-73
2021/09/25 09:08:37;;;;;;;5.20;2.90;;;;;;;24.06;45.50;95234.84;10239484;28;20490;-71
2021/09/25 09:13:40;;;;;;;4.32;2.90;;;;;;;25.06;44.97;95218.69;10238886;28;20035;-74
2021/09/25 09:18:43;;;;;;;3.13;2.20;;;;;;;25.63;43.17;95227.56;10239729;28;20038;-71
2021/09/25 09:23:48;;;;;;;12.50;2.38;;;;;;;26.82;40.33;95229.25;10238314;28;20034;-73
2021/09/25 09:28:50;;;;;;;8.90;2.92;;;;;;;28.67;36.67;95223.34;10255392;28;20058;-70
2021/09/25 09:33:56;;;;;;;3.83;2.28;;;;;;;29.17;34.27;95213.97;10253412;28;20031;-75
2021/09/25 09:38:57;;;;;;;3.17;2.20;;;;;;;29.90;34.80;95221.69;10237583;28;20039;-69
2021/09/25 09:44:04;;;;;;;3.93;2.03;;;;;;;31.50;32.33;95219.00;10241850;28;20039;-72
2021/09/25 09:49:07;;;;;;;3.58;2.40;;;;;;;32.10;31.09;95220.13;10245572;28;20031;-74
2021/09/25 09:54:26;;;;;;;3.85;2.60;;;;;;;35.36;27.24;95216.09;10244677;28;20500;-72
2021/09/25 09:59:27;;;;;;;2.90;2.20;;;;;;;35.48;26.24;95215.50;10243599;28;20513;-71
2021/09/25 10:04:28;;;;;;;4.50;2.03;;;;;;;33.80;27.31;95221.97;10243300;28;20035;-72
2021/09/25 10:09:30;;;;;;;3.63;2.08;;;;;;;36.62;25.33;95213.88;10243546;28;20031;-72
2021/09/25 10:14:38;;;;;;;6.85;2.90;;;;;;;37.47;24.45;95208.78;10241602;28;20039;-74
2021/09/25 10:19:40;;;;;;;6.93;2.03;;;;;;;39.06;23.29;95199.66;10242423;28;20444;-74
2021/09/25 10:24:46;;;;;;;3.05;1.77;;;;;;;40.14;22.62;95187.72;10242481;28;20019;-74
2021/09/25 10:29:51;;;;;;;3.40;1.95;;;;;;;39.94;22.53;95185.97;10241805;28;20023;-70
2021/09/25 10:35:04;;;;;;;5.43;1.90;;;;;;;37.12;22.77;95186.78;10197999;29;20556;-71
2021/09/25 10:40:10;;;;;;;7.40;1.88;;;;;;;35.58;24.72;95180.19;10217774;29;20035;-69
2021/09/25 10:45:22;;;;;;;4.60;1.60;;;;;;;37.58;23.65;95176.47;10203229;28;20118;-68
2021/09/25 10:50:22;;;;;;;4.90;2.38;;;;;;;34.54;26.34;95179.75;10241894;28;20493;-73
2021/09/25 10:55:26;;;;;;;4.03;2.23;;;;;;;36.91;25.03;95166.44;10248307;28;20141;-71
2021/09/25 11:00:26;;;;;;;6.30;2.17;;;;;;;38.86;23.28;95166.16;10241813;29;20047;-69
2021/09/25 11:06:04;;;;;;;7.23;2.33;;;;;;;35.58;26.63;95172.63;10242026;28;20020;-75
2021/09/25 11:11:13;;;;;;;6.53;2.50;;;;;;;31.32;29.03;95175.34;10248386;28;20071;-73
2021/09/25 11:16:14;;;;;;;3.40;2.42;;;;;;;33.00;29.02;95161.31;10217675;28;20157;-72
2021/09/25 11:21:14;;;;;;;8.13;2.58;;;;;;;33.24;27.93;95161.56;10233334;28;20106;-72
2021/09/25 11:26:15;;;;;;;5.53;2.75;;;;;;;31.05;31.90;95163.88;10224642;28;21002;-72
2021/09/25 11:31:15;;;;;;;8.13;2.63;;;;;;;28.47;34.40;95159.91;10239893;28;20040;-72
2021/09/25 11:36:16;;;;;;;5.70;2.50;;;;;;;27.37;34.88;95155.31;10240206;29;20023;-69
2021/09/25 11:41:16;;;;;;;3.20;2.37;;;;;;;26.32;37.31;95143.63;10240272;28;20501;-68
2021/09/25 11:46:17;;;;;;;5.20;2.83;;;;;;;26.52;38.27;95144.41;10241328;28;20035;-70
2021/09/25 11:51:22;;;;;;;7.77;2.60;;;;;;;26.38;40.54;95151.25;10241281;28;20111;-69
2021/09/25 11:56:31;;;;;;;8.38;2.55;;;;;;;25.67;41.40;95137.59;10240884;28;20816;-69
2021/09/25 12:01:35;;;;;;;3.72;2.70;;;;;;;25.26;42.92;95139.81;10240019;28;20042;-71
2021/09/25 12:06:36;;;;;;;3.38;2.45;;;;;;;25.05;43.64;95140.13;10239694;28;20031;-68
2021/09/25 12:11:39;;;;;;;6.43;4.50;;;;;;;25.15;44.21;95133.28;10223824;29;20027;-72
2021/09/25 12:16:40;;;;;;;3.15;2.55;;;;;;;25.20;42.45;95122.00;10238825;29;20555;-71
2021/09/25 12:21:50;;;;;;;7.43;2.50;;;;;;;25.21;42.93;95127.13;10239215;29;20090;-73
2021/09/25 12:26:55;;;;;;;7.28;4.20;;;;;;;25.56;43.12;95122.81;10237913;29;20114;-69
2021/09/25 12:32:01;;;;;;;3.85;2.53;;;;;;;25.75;43.33;95124.81;10238606;29;20027;-73
2021/09/25 12:37:02;;;;;;;7.68;2.33;;;;;;;25.79;41.71;95122.91;10238146;28;20043;-68
2021/09/25 12:42:04;;;;;;;4.95;2.25;;;;;;;25.77;41.94;95125.22;10239708;28;20053;-69
2021/09/25 12:47:04;;;;;;;5.97;2.88;;;;;;;25.70;42.80;95117.63;10239234;28;20042;-71
2021/09/25 12:52:08;;;;;;;4.70;2.70;;;;;;;25.67;42.49;95109.28;10238013;28;20054;-68
2021/09/25 12:57:20;;;;;;;3.22;2.00;;;;;;;25.37;42.41;95112.59;10239241;28;20064;-68
2021/09/25 13:02:20;;;;;;;3.22;2.00;;;;;;;25.16;44.66;95110.09;10237899;29;20035;-68
2021/09/25 13:07:31;;;;;;;3.55;2.53;;;;;;;25.30;42.86;95110.44;10221727;29;20031;-70
2021/09/25 13:12:42;;;;;;;3.33;2.35;;;;;;;25.18;42.43;95103.09;10237883;28;20147;-75
2021/09/25 13:17:44;;;;;;;5.05;1.90;;;;;;;25.11;45.35;95102.16;10241099;28;20114;-70
2021/09/25 13:22:47;;;;;;;4.57;1.85;;;;;;;25.02;44.42;95103.13;10261740;28;20934;-76
2021/09/25 13:27:48;;;;;;;4.20;2.42;;;;;;;24.99;45.34;95097.53;10245347;29;20031;-67
2021/09/25 13:32:49;;;;;;;4.40;2.13;;;;;;;25.09;45.22;95097.00;10245728;28;20031;-72
2021/09/25 13:37:49;;;;;;;5.50;2.33;;;;;;;24.91;43.24;95100.13;10244251;28;20031;-68
2021/09/25 13:42:49;;;;;;;3.53;2.03;;;;;;;25.01;42.90;95098.78;10238782;28;20461;-69
2021/09/25 13:47:52;;;;;;;6.70;2.00;;;;;;;25.06;43.15;95104.03;10252345;28;20325;-70
2021/09/25 13:52:52;;;;;;;2.25;1.55;;;;;;;24.87;44.21;95096.50;10259336;23;20341;-70
2021/09/25 13:57:53;;;;;;;3.90;1.83;;;;;;;24.53;45.76;95103.47;10240812;29;20042;-70
2021/09/25 14:02:55;;;;;;;3.33;1.87;;;;;;;24.47;44.83;95096.66;10259921;28;20481;-72
2021/09/25 14:07:55;;;;;;;1.80;1.48;;;;;;;24.57;43.83;95104.34;10246678;28;20811;-70
2021/09/25 14:12:56;;;;;;;3.27;2.10;;;;;;;24.50;44.47;95099.50;10244119;28;20039;-69
2021/09/25 14:17:56;;;;;;;6.43;2.47;;;;;;;24.48;44.43;95095.50;10242480;28;20121;-70
2021/09/25 14:22:57;;;;;;;4.50;2.83;;;;;;;24.46;44.25;95093.13;10256634;28;20054;-71
2021/09/25 14:27:57;;;;;;;4.68;2.13;;;;;;;24.36;45.79;95097.19;10242119;28;20027;-70
2021/09/25 14:32:57;;;;;;;6.00;3.43;;;;;;;24.27;47.41;95102.03;10231496;28;20062;-71
2021/09/25 14:37:58;;;;;;;4.87;2.03;;;;;;;24.17;46.01;95103.34;10235765;29;20290;-72
2021/09/25 14:42:59;;;;;;;6.75;3.88;;;;;;;24.18;46.68;95106.88;10258256;28;20267;-69
2021/09/25 14:48:01;;;;;;;5.90;2.30;;;;;;;24.06;48.68;95113.25;10226122;28;20035;-70
2021/09/25 14:53:03;;;;;;;3.50;2.22;;;;;;;23.97;48.84;95113.38;10251837;28;20063;-71
2021/09/25 14:58:04;;;;;;;7.00;4.00;;;;;;;23.86;49.12;95115.00;10242520;28;20509;-68
2021/09/25 15:03:05;;;;;;;5.05;3.35;;;;;;;23.80;49.81;95117.19;10241992;29;20042;-67
2021/09/25 15:08:05;;;;;;;5.00;3.50;;;;;;;23.69;50.63;95121.59;10223599;29;20034;-71
2021/09/25 15:13:06;;;;;;;8.95;3.97;;;;;;;23.60;49.61;95118.22;10241929;28;20105;-67
2021/09/25 15:18:07;;;;;;;5.55;2.55;;;;;;;23.46;51.46;95118.59;10240465;28;20031;-66
2021/09/25 15:23:07;;;;;;;4.17;3.27;;;;;;;23.33;52.98;95126.00;10240863;29;20027;-72
2021/09/25 15:28:08;;;;;;;10.85;6.85;;;;;;;23.19;52.63;95116.22;10238691;29;20271;-70
2021/09/25 15:33:10;;;;;;;9.32;3.05;;;;;;;23.16;54.55;95116.09;10241121;28;20061;-69
2021/09/25 15:38:11;;;;;;;4.55;2.78;;;;;;;22.98;55.86;95126.47;10239904;29;20363;-70
2021/09/25 15:43:11;;;;;;;9.10;4.78;;;;;;;22.89;54.62;95126.59;10240074;28;20517;-71
2021/09/25 15:48:12;;;;;;;5.03;3.22;;;;;;;22.81;55.27;95138.47;10255886;28;20031;-71
2021/09/25 15:53:12;;;;;;;5.53;4.20;;;;;;;22.61;58.24;95138.22;10254796;28;20047;-70
2021/09/25 15:58:13;;;;;;;12.55;4.90;;;;;;;22.52;59.85;95143.81;10238994;28;20279;-69
2021/09/25 16:03:13;;;;;;;6.13;3.85;;;;;;;22.23;63.21;95155.69;10238975;28;20217;-68
2021/09/25 16:08:14;;;;;;;7.30;3.08;;;;;;;21.90;70.25;95166.63;10238797;28;20116;-68
2021/09/25 16:13:15;;;;;;;12.07;4.88;;;;;;;21.53;71.56;95167.25;10254888;28;20039;-71
2021/09/25 16:18:15;;;;;;;17.48;6.57;;;;;;;21.28;72.80;95167.03;10238006;28;20548;-69
2021/09/25 16:23:17;;;;;;;19.27;10.95;;;;;;;21.02;76.46;95166.38;10222944;29;20027;-70
2021/09/25 16:28:18;;;;;;;21.27;10.82;;;;;;;20.75;79.93;95173.88;10222348;28;20035;-68
2021/09/25 16:33:20;;;;;;;14.68;6.00;;;;;;;20.62;80.55;95176.50;10214386;28;20474;-68
2021/09/25 16:38:20;;;;;;;14.52;6.35;;;;;;;20.55;81.45;95184.34;10198832;29;20035;-70
2021/09/25 16:43:21;;;;;;;16.88;6.13;;;;;;;20.39;83.37;95188.75;10214395;29;20032;-72
2021/09/25 16:48:21;;;;;;;14.40;5.68;;;;;;;20.32;84.33;95195.50;10199875;29;20035;-66
2021/09/25 16:53:22;;;;;;;11.15;4.78;;;;;;;20.16;84.61;95199.84;10234796;28;20055;-68
2021/09/25 16:58:23;;;;;;;12.98;5.40;;;;;;;20.13;86.10;95206.75;10229930;28;20041;-67
2021/09/25 17:03:23;;;;;;;19.38;9.32;;;;;;;20.04;86.96;95207.88;10261664;28;20019;-75
2021/09/25 17:08:23;;;;;;;14.27;7.93;;;;;;;19.86;90.75;95220.75;10245967;29;20403;-74
2021/09/25 17:13:24;;;;;;;29.23;10.93;;;;;;;19.84;90.98;95215.59;10245464;28;20282;-71
2021/09/25 17:18:24;;;;;;;13.35;5.93;;;;;;;19.77;91.87;95212.50;10244854;28;20035;-69
2021/09/25 17:23:25;;;;;;;18.88;6.45;;;;;;;19.68;92.63;95215.25;10246085;28;20409;-72
2021/09/25 17:28:26;;;;;;;10.05;6.18;;;;;;;19.61;92.74;95221.16;10242230;28;20042;-67
2021/09/25 17:33:26;;;;;;;7.35;4.97;;;;;;;19.59;95.10;95228.06;10245830;28;20031;-70
2021/09/25 17:38:27;;;;;;;8.73;5.38;;;;;;;19.37;95.96;95242.59;10229183;28;20027;-68
2021/09/25 17:43:28;;;;;;;10.70;5.20;;;;;;;19.32;96.73;95242.75;10212669;29;20034;-72
2021/09/25 17:48:29;;;;;;;8.57;4.82;;;;;;;19.19;96.79;95247.22;10230388;28;20708;-66
2021/09/25 17:53:29;;;;;;;9.85;5.88;;;;;;;19.24;100.00;95255.22;10223235;29;20124;-68
2021/09/25 17:58:30;;;;;;;12.13;4.85;;;;;;;19.02;100.00;95256.94;10220672;28;20109;-70
2021/09/25 18:03:30;;;;;;;12.87;5.07;;;;;;;18.85;100.00;95265.78;10221671;28;20760;-68
2021/09/25 18:08:31;;;;;;;16.73;5.00;;;;;;;18.82;100.00;95265.59;10219263;28;20287;-73
2021/09/25 18:13:33;;;;;;;7.55;4.80;;;;;;;18.79;100.00;95270.53;10220211;29;20066;-72
2021/09/25 18:18:33;;;;;;;7.55;5.38;;;;;;;18.74;100.00;95270.69;10215084;28;20477;-72
2021/09/25 18:23:36;;;;;;;7.88;5.13;;;;;;;18.69;100.00;95278.19;10221922;28;20118;-72
2021/09/25 18:28:37;;;;;;;9.60;5.47;;;;;;;18.67;100.00;95270.34;10218799;28;20023;-66
2021/09/25 18:33:42;;;;;;;9.60;6.15;;;;;;;18.46;100.00;95275.50;10218524;28;20023;-69
2021/09/25 18:38:44;;;;;;;10.93;5.85;;;;;;;18.31;100.00;95284.00;10221087;29;20091;-71
2021/09/25 18:43:44;;;;;;;10.63;5.72;;;;;;;18.34;100.00;95284.22;10230715;28;20601;-69
2021/09/25 18:48:45;;;;;;;10.90;4.95;;;;;;;18.41;100.00;95278.34;10240281;28;20031;-69
2021/09/25 18:53:46;;;;;;;13.23;6.13;;;;;;;18.35;100.00;95290.44;10238448;29;20430;-69
2021/09/25 18:58:46;;;;;;;7.75;5.22;;;;;;;18.41;100.00;95295.47;10255169;28;20533;-73
2021/09/25 19:03:50;;;;;;;10.50;6.90;;;;;;;18.21;100.00;95298.66;10237583;28;20019;-72
2021/09/25 19:08:52;;;;;;;11.25;6.60;;;;;;;18.06;100.00;95291.69;10238227;28;20027;-69
2021/09/25 19:13:53;;;;;;;7.68;4.72;;;;;;;18.03;100.00;95298.53;10222045;28;20035;-69
2021/09/25 19:18:54;;;;;;;8.10;4.40;;;;;;;17.96;100.00;95305.50;10251327;28;20030;-69
2021/09/25 19:23:56;;;;;;;12.65;5.45;;;;;;;17.90;100.00;95308.31;10253096;28;20481;-70
2021/09/25 19:28:56;;;;;;;7.93;4.82;;;;;;;17.83;100.00;95307.91;10237764;28;20448;-69
2021/09/25 19:33:57;;;;;;;11.93;5.20;;;;;;;17.72;100.00;95301.06;10227912;28;20031;-71
2021/09/25 19:38:58;;;;;;;7.72;5.35;;;;;;;17.70;100.00;95309.53;10217474;28;20315;-74
2021/09/25 19:43:58;;;;;;;6.78;4.20;;;;;;;17.67;100.00;95307.44;10238432;28;20031;-69
2021/09/25 19:48:59;;;;;;;9.32;5.05;;;;;;;17.55;100.00;95307.97;10226558;28;20035;-70
2021/09/25 19:54:01;;;;;;;11.73;4.97;;;;;;;17.56;100.00;95320.41;10201634;29;20091;-74
2021/09/25 19:59:04;;;;;;;9.00;4.32;;;;;;;17.60;100.00;95318.72;10200566;29;20030;-68
2021/09/25 20:04:05;;;;;;;11.18;4.50;;;;;;;17.69;100.00;95318.00;10201733;29;20030;-69
2021/09/25 20:09:05;;;;;;;7.20;4.32;;;;;;;17.69;100.00;95318.78;10220228;29;20023;-73
2021/09/25 20:14:07;;;;;;;9.07;4.55;;;;;;;17.70;100.00;95316.91;10227971;28;20030;-69
2021/09/25 20:19:09;;;;;;;8.13;6.07;;;;;;;17.68;100.00;95321.81;10236995;28;20106;-73
2021/09/25 20:24:09;;;;;;;11.03;4.43;;;;;;;17.61;100.00;95330.41;10235627;28;20472;-71
2021/09/25 20:29:10;;;;;;;14.68;5.55;;;;;;;17.44;100.00;95333.72;10236267;28;20286;-72
2021/09/25 20:34:10;;;;;;;15.63;5.55;;;;;;;17.38;100.00;95335.72;10241721;28;20039;-74
2021/09/25 20:39:11;;;;;;;10.32;5.60;;;;;;;17.34;100.00;95337.44;10230876;28;20453;-72
2021/09/25 20:44:11;;;;;;;13.98;5.30;;;;;;;17.30;100.00;95328.28;10219163;29;20031;-68
2021/09/25 20:49:12;;;;;;;11.80;5.47;;;;;;;17.10;100.00;95334.91;10236055;28;20070;-74
2021/09/25 20:54:13;;;;;;;9.93;5.10;;;;;;;16.98;100.00;95335.41;10230926;28;20047;-73
2021/09/25 20:59:14;;;;;;;9.85;5.55;;;;;;;16.71;100.00;95334.19;10234761;29;20101;-72
2021/09/25 21:04:15;;;;;;;12.15;6.00;;;;;;;16.46;100.00;95340.81;10235481;28;20110;-74
2021/09/25 21:09:16;;;;;;;10.15;5.80;;;;;;;16.43;100.00;95343.34;10235056;29;20391;-70
2021/09/25 21:14:17;;;;;;;13.43;5.15;;;;;;;16.38;100.00;95346.91;10234300;28;20042;-69
2021/09/25 21:19:17;;;;;;;10.88;5.47;;;;;;;16.35;100.00;95342.09;10234538;28;20070;-71
2021/09/25 21:24:18;;;;;;;8.90;5.40;;;;;;;16.29;100.00;95346.78;10219619;28;20023;-71
2021/09/25 21:29:18;;;;;;;9.73;5.03;;;;;;;16.22;100.00;95358.00;10235582;28;20039;-69
2021/09/25 21:34:19;;;;;;;9.13;4.97;;;;;;;16.15;100.00;95360.28;10235370;28;20038;-75
2021/09/25 21:39:20;;;;;;;9.60;5.00;;;;;;;16.12;100.00;95349.22;10255622;28;20038;-71
2021/09/25 21:44:20;;;;;;;5.90;4.20;;;;;;;15.92;100.00;95353.00;10258383;28;20023;-73
2021/09/25 21:49:21;;;;;;;7.15;4.70;;;;;;;15.78;100.00;95359.13;10241946;28;20089;-73
2021/09/25 21:54:21;;;;;;;5.28;4.18;;;;;;;15.74;100.00;95355.38;10242819;29;20059;-73
2021/09/25 21:59:22;;;;;;;7.30;4.32;;;;;;;15.73;100.00;95354.56;10241888;28;20045;-76
2021/09/25 22:04:23;;;;;;;7.57;4.50;;;;;;;15.68;100.00;95361.97;10242600;29;20118;-76
2021/09/25 22:09:24;;;;;;;6.88;4.78;;;;;;;15.57;100.00;95363.97;10240869;28;20278;-71
2021/09/25 22:14:25;;;;;;;8.88;5.03;;;;;;;15.48;100.00;95369.22;10222102;28;20087;-71
2021/09/25 22:19:25;;;;;;;8.10;4.77;;;;;;;15.46;100.00;95366.03;10241980;28;20051;-68
2021/09/25 22:24:27;;;;;;;7.87;4.40;;;;;;;15.29;100.00;95371.88;10239537;29;20719;-71
2021/09/25 22:29:27;;;;;;;8.45;4.80;;;;;;;15.21;100.00;95373.31;10236720;29;20322;-75
2021/09/25 22:34:35;;;;;;;9.57;5.53;;;;;;;15.25;100.00;95373.56;10237121;28;20057;-72
2021/09/25 22:39:36;;;;;;;7.97;4.80;;;;;;;15.13;100.00;95378.56;10254138;28;20303;-70
2021/09/25 22:44:36;;;;;;;6.13;4.05;;;;;;;15.00;100.00;95375.44;10237796;28;20553;-71
2021/09/25 22:49:37;;;;;;;6.38;4.40;;;;;;;14.95;100.00;95382.78;10235910;28;20047;-71
2021/09/25 22:54:37;;;;;;;7.57;4.88;;;;;;;14.84;100.00;95380.16;10237321;29;20035;-72
2021/09/25 22:59:39;;;;;;;5.07;3.90;;;;;;;14.72;100.00;95381.63;10236347;28;20050;-69
2021/09/25 23:04:40;;;;;;;7.82;4.55;;;;;;;14.50;100.00;95374.75;10237104;28;20370;-71
2021/09/25 23:09:41;;;;;;;8.20;4.40;;;;;;;14.48;100.00;95383.13;10236553;28;20023;-71